Time;durP1;ratioP1;P1;durP2;ratioP2;P2;SDS_P1;SDS_P2;PMS_P1;PMS_P2;Temp;Humidity;BMP_temperature;BMP_pressure;BME280_temperature;BME280_humidity;BME280_pressure;Samples;Min_cycle;Max_cycle;Signal;HPM_P1;HPM_P2
2024/02/14 00:02:06;;;;;;;5.37;4.73;;;;;;;;;;6386010;27;20292;-57
2024/02/14 00:05:12;;;;;;;4.87;4.30;;;;;;;;;;6385535;27;20289;-56
2024/02/14 00:08:17;;;;;;;5.33;4.80;;;;;;;;;;6386065;27;20295;-55
2024/02/14 00:11:20;;;;;;;6.67;4.43;;;;;;;;;;6360342;27;20320;-56
2024/02/14 00:14:24;;;;;;;5.13;4.63;;;;;;;;;;6385185;27;20292;-57
2024/02/14 00:17:28;;;;;;;5.43;4.73;;;;;;;;;;6386042;27;20295;-56
2024/02/14 00:20:34;;;;;;;6.17;4.60;;;;;;;;;;6385357;27;20295;-57
2024/02/14 00:23:38;;;;;;;4.87;4.50;;;;;;;;;;6385097;27;20516;-55
2024/02/14 00:26:42;;;;;;;5.53;4.87;;;;;;;;;;6385645;27;20485;-56
2024/02/14 00:29:46;;;;;;;5.90;5.33;;;;;;;;;;6384688;27;20295;-58
2024/02/14 00:32:51;;;;;;;5.10;4.70;;;;;;;;;;6379199;27;20589;-57
2024/02/14 00:35:57;;;;;;;5.30;4.80;;;;;;;;;;6334035;28;20297;-57
2024/02/14 00:39:01;;;;;;;5.60;5.17;;;;;;;;;;6333712;28;20289;-56
2024/02/14 00:42:05;;;;;;;7.00;5.30;;;;;;;;;;6334272;28;20309;-55
2024/02/14 00:45:10;;;;;;;4.77;4.47;;;;;;;;;;6333745;28;20295;-55
2024/02/14 00:48:14;;;;;;;5.17;4.73;;;;;;;;;;6334092;28;20298;-56
2024/02/14 00:51:19;;;;;;;5.63;4.67;;;;;;;;;;6333067;28;20618;-57
2024/02/14 00:54:23;;;;;;;4.60;4.20;;;;;;;;;;6333597;28;20295;-54
2024/02/14 00:57:28;;;;;;;5.10;4.70;;;;;;;;;;6315894;28;20289;-57
2024/02/14 01:00:33;;;;;;;5.70;5.07;;;;;;;;;;6333666;28;20297;-58
2024/02/14 01:03:39;;;;;;;4.93;4.50;;;;;;;;;;6333529;28;20297;-56
2024/02/14 01:06:45;;;;;;;5.30;4.80;;;;;;;;;;6334019;28;20581;-53
2024/02/14 01:09:49;;;;;;;4.90;4.53;;;;;;;;;;6345242;28;20305;-57
2024/02/14 01:12:53;;;;;;;4.60;4.33;;;;;;;;;;6359438;28;20305;-58
2024/02/14 01:15:57;;;;;;;5.20;4.70;;;;;;;;;;6358576;28;20296;-57
2024/02/14 01:19:01;;;;;;;4.97;4.57;;;;;;;;;;6384327;28;20292;-55
2024/02/14 01:22:08;;;;;;;4.93;4.57;;;;;;;;;;6384632;28;20297;-57
2024/02/14 01:25:12;;;;;;;4.90;4.43;;;;;;;;;;6384304;27;20558;-55
2024/02/14 01:28:17;;;;;;;5.60;5.00;;;;;;;;;;6388674;27;20283;-56
2024/02/14 01:31:21;;;;;;;4.73;4.43;;;;;;;;;;6388846;27;20286;-54
2024/02/14 01:34:24;;;;;;;5.00;4.70;;;;;;;;;;6389156;27;20287;-57
2024/02/14 01:37:30;;;;;;;5.90;5.37;;;;;;;;;;6388128;27;20274;-59
2024/02/14 01:40:34;;;;;;;5.07;4.57;;;;;;;;;;6388577;27;20402;-55
2024/02/14 01:43:38;;;;;;;9.20;6.07;;;;;;;;;;6387968;27;20270;-56
2024/02/14 01:46:42;;;;;;;5.47;5.07;;;;;;;;;;6388935;27;20240;-55
2024/02/14 01:49:47;;;;;;;4.97;4.57;;;;;;;;;;6388255;27;20291;-56
2024/02/14 01:52:52;;;;;;;5.23;4.80;;;;;;;;;;6389108;27;20295;-54
2024/02/14 01:55:56;;;;;;;5.47;5.07;;;;;;;;;;6388307;27;20576;-54
2024/02/14 01:59:00;;;;;;;5.47;5.07;;;;;;;;;;6387953;27;20293;-59
2024/02/14 02:02:06;;;;;;;5.20;4.70;;;;;;;;;;6388344;27;20324;-56
2024/02/14 02:05:12;;;;;;;5.43;4.80;;;;;;;;;;6387921;27;20365;-56
2024/02/14 02:08:17;;;;;;;5.23;4.73;;;;;;;;;;6388619;27;20308;-56
2024/02/14 02:11:22;;;;;;;5.43;4.93;;;;;;;;;;6362761;27;20315;-57
2024/02/14 02:14:26;;;;;;;6.63;5.47;;;;;;;;;;6362199;28;20304;-55
2024/02/14 02:17:30;;;;;;;7.63;5.80;;;;;;;;;;6388607;27;20296;-58
2024/02/14 02:20:34;;;;;;;6.07;5.47;;;;;;;;;;6387839;27;20300;-55
2024/02/14 02:23:41;;;;;;;5.73;5.13;;;;;;;;;;6368939;27;20368;-55
2024/02/14 02:26:45;;;;;;;6.33;5.57;;;;;;;;;;6388350;27;20299;-55
2024/02/14 02:29:49;;;;;;;7.07;5.70;;;;;;;;;;6387505;27;20307;-55
2024/02/14 02:32:53;;;;;;;6.73;5.67;;;;;;;;;;6388006;27;20287;-54
2024/02/14 02:35:57;;;;;;;8.30;6.17;;;;;;;;;;6387423;27;20294;-56
2024/02/14 02:39:03;;;;;;;7.43;5.77;;;;;;;;;;6387434;27;20291;-56
2024/02/14 02:42:08;;;;;;;7.33;6.33;;;;;;;;;;6387837;27;20290;-56
2024/02/14 02:45:12;;;;;;;9.30;6.37;;;;;;;;;;6387216;27;20432;-55
2024/02/14 02:48:16;;;;;;;9.43;6.53;;;;;;;;;;6387939;27;20290;-56
2024/02/14 02:51:20;;;;;;;9.27;6.87;;;;;;;;;;6387209;27;20291;-54
2024/02/14 02:54:25;;;;;;;10.40;6.97;;;;;;;;;;6387123;27;20540;-57
2024/02/14 02:57:31;;;;;;;11.00;6.87;;;;;;;;;;6387309;27;20592;-54
2024/02/14 03:00:35;;;;;;;11.77;7.17;;;;;;;;;;6387037;27;20579;-55
2024/02/14 03:03:40;;;;;;;11.17;6.87;;;;;;;;;;6386536;27;20351;-57
2024/02/14 03:06:45;;;;;;;9.00;6.83;;;;;;;;;;6386983;27;20303;-54
2024/02/14 03:09:50;;;;;;;12.47;7.30;;;;;;;;;;6374434;27;20391;-54
2024/02/14 03:12:54;;;;;;;8.77;7.03;;;;;;;;;;6361516;28;20288;-56
2024/02/14 03:15:58;;;;;;;11.33;7.70;;;;;;;;;;6361070;28;20296;-55
2024/02/14 03:19:04;;;;;;;11.20;7.80;;;;;;;;;;6360564;28;20304;-54
2024/02/14 03:22:08;;;;;;;10.80;7.10;;;;;;;;;;6361253;28;20296;-55
2024/02/14 03:25:17;;;;;;;9.97;7.20;;;;;;;;;;6360790;28;20316;-56
2024/02/14 03:28:21;;;;;;;8.50;7.27;;;;;;;;;;6386843;27;20304;-58
2024/02/14 03:31:26;;;;;;;10.30;7.23;;;;;;;;;;6386275;27;20320;-56
2024/02/14 03:34:30;;;;;;;10.83;7.17;;;;;;;;;;6385191;27;20620;-58
2024/02/14 03:37:34;;;;;;;11.00;7.60;;;;;;;;;;6386143;27;20243;-55
2024/02/14 03:40:41;;;;;;;11.50;7.53;;;;;;;;;;6385870;27;20291;-56
2024/02/14 03:43:45;;;;;;;12.03;7.27;;;;;;;;;;6385758;27;20541;-55
2024/02/14 03:46:49;;;;;;;8.87;7.23;;;;;;;;;;6386398;27;20287;-55
2024/02/14 03:49:53;;;;;;;10.63;7.33;;;;;;;;;;6385282;27;20303;-56
2024/02/14 03:52:57;;;;;;;9.97;7.80;;;;;;;;;;6385922;27;20291;-56
2024/02/14 03:56:02;;;;;;;8.10;6.70;;;;;;;;;;6385483;27;20564;-54
2024/02/14 03:59:07;;;;;;;10.23;6.90;;;;;;;;;;6385789;27;20292;-55
2024/02/14 04:02:11;;;;;;;8.53;6.77;;;;;;;;;;6365395;27;20309;-56
2024/02/14 04:05:15;;;;;;;9.97;7.40;;;;;;;;;;6359506;28;20560;-56
2024/02/14 04:08:19;;;;;;;9.57;6.70;;;;;;;;;;6359804;28;20288;-55
2024/02/14 04:11:25;;;;;;;9.30;7.07;;;;;;;;;;6360154;28;20296;-56
2024/02/14 04:14:28;;;;;;;9.53;6.80;;;;;;;;;;6359362;28;20292;-56
2024/02/14 04:17:32;;;;;;;8.57;7.03;;;;;;;;;;6360175;28;20297;-53
2024/02/14 04:20:36;;;;;;;7.77;6.63;;;;;;;;;;6358619;28;20313;-56
2024/02/14 04:23:40;;;;;;;11.33;6.77;;;;;;;;;;6359289;28;20294;-56
2024/02/14 04:26:48;;;;;;;9.20;6.70;;;;;;;;;;6359966;28;20293;-58
2024/02/14 04:29:52;;;;;;;10.13;6.77;;;;;;;;;;6359436;28;20293;-56
2024/02/14 04:32:56;;;;;;;9.30;6.23;;;;;;;;;;6359669;28;20285;-54
2024/02/14 04:36:00;;;;;;;9.80;6.73;;;;;;;;;;6359142;28;20588;-56
2024/02/14 04:39:04;;;;;;;9.23;7.03;;;;;;;;;;6384422;27;20365;-56
2024/02/14 04:42:09;;;;;;;10.63;6.77;;;;;;;;;;6385170;27;20291;-56
2024/02/14 04:45:13;;;;;;;8.40;7.23;;;;;;;;;;6384401;27;20292;-55
2024/02/14 04:48:17;;;;;;;12.37;7.57;;;;;;;;;;6384636;28;20471;-56
2024/02/14 04:51:21;;;;;;;11.67;7.20;;;;;;;;;;6385111;28;20294;-57
2024/02/14 04:54:26;;;;;;;12.83;8.03;;;;;;;;;;6384321;27;20299;-57
2024/02/14 04:57:35;;;;;;;13.93;7.70;;;;;;;;;;6384785;28;20292;-57
2024/02/14 05:00:39;;;;;;;10.70;7.33;;;;;;;;;;6384527;27;20304;-55
2024/02/14 05:03:43;;;;;;;12.77;7.57;;;;;;;;;;6370743;27;20292;-54
2024/02/14 05:06:47;;;;;;;19.83;8.80;;;;;;;;;;6390244;27;20299;-55
2024/02/14 05:09:55;;;;;;;13.83;7.67;;;;;;;;;;6376770;27;20466;-55
2024/02/14 05:13:01;;;;;;;17.70;8.10;;;;;;;;;;6389864;27;20292;-56
2024/02/14 05:16:05;;;;;;;16.63;8.27;;;;;;;;;;6370698;27;20288;-56
2024/02/14 05:19:09;;;;;;;15.10;8.20;;;;;;;;;;6389287;27;20579;-55
2024/02/14 05:22:13;;;;;;;20.83;8.50;;;;;;;;;;6370953;27;20307;-55
2024/02/14 05:25:18;;;;;;;20.20;8.37;;;;;;;;;;6389443;27;20295;-54
2024/02/14 05:28:23;;;;;;;16.40;8.03;;;;;;;;;;6389142;27;20299;-55
2024/02/14 05:31:43;;;;;;;20.67;8.97;;;;;;;;;;6388605;27;20383;-59
2024/02/14 05:34:47;;;;;;;15.77;8.40;;;;;;;;;;6388713;27;20305;-55
2024/02/14 05:37:51;;;;;;;20.70;8.57;;;;;;;;;;6389274;27;20299;-58
2024/02/14 05:40:55;;;;;;;17.53;8.90;;;;;;;;;;6388735;27;20317;-54
2024/02/14 05:44:00;;;;;;;22.90;9.60;;;;;;;;;;6388160;27;20420;-55
2024/02/14 05:47:05;;;;;;;18.07;8.40;;;;;;;;;;6388452;27;20296;-54
2024/02/14 05:50:11;;;;;;;18.10;8.77;;;;;;;;;;6388423;27;20288;-56
2024/02/14 05:53:15;;;;;;;22.53;9.17;;;;;;;;;;6388239;27;20292;-53
2024/02/14 05:56:18;;;;;;;22.60;8.97;;;;;;;;;;6387998;27;20404;-54
2024/02/14 05:59:24;;;;;;;17.97;8.83;;;;;;;;;;6386804;27;20286;-56
2024/02/14 06:02:28;;;;;;;22.93;9.17;;;;;;;;;;6387041;28;20287;-56
2024/02/14 06:05:32;;;;;;;22.97;9.57;;;;;;;;;;6386499;28;20295;-55
2024/02/14 06:08:35;;;;;;;28.03;9.37;;;;;;;;;;6385174;28;20383;-58
2024/02/14 06:11:40;;;;;;;23.73;9.50;;;;;;;;;;6360788;28;20585;-56
2024/02/14 06:14:45;;;;;;;28.10;9.17;;;;;;;;;;6360334;28;20301;-57
2024/02/14 06:17:49;;;;;;;26.27;9.03;;;;;;;;;;6360766;28;20297;-56
2024/02/14 06:20:53;;;;;;;26.90;10.00;;;;;;;;;;6384408;28;20292;-57
2024/02/14 06:23:58;;;;;;;23.50;9.50;;;;;;;;;;6385701;27;20288;-57
2024/02/14 06:27:02;;;;;;;29.50;9.50;;;;;;;;;;6386315;28;20296;-54
2024/02/14 06:30:09;;;;;;;21.47;8.60;;;;;;;;;;6385584;27;20372;-55
2024/02/14 06:33:13;;;;;;;28.80;9.47;;;;;;;;;;6385435;27;20252;-57
2024/02/14 06:36:17;;;;;;;25.00;9.00;;;;;;;;;;6386068;28;20287;-56
2024/02/14 06:39:21;;;;;;;33.10;9.97;;;;;;;;;;6385524;27;20300;-56
2024/02/14 06:42:26;;;;;;;33.03;9.50;;;;;;;;;;6385725;28;20375;-53
2024/02/14 06:45:31;;;;;;;34.30;10.90;;;;;;;;;;6385639;27;20296;-55
2024/02/14 06:48:35;;;;;;;30.73;10.50;;;;;;;;;;6385652;27;20370;-55
2024/02/14 06:51:39;;;;;;;32.13;10.73;;;;;;;;;;6386258;28;20288;-57
2024/02/14 06:54:45;;;;;;;31.73;10.50;;;;;;;;;;6341560;27;1227919;-56
2024/02/14 06:57:49;;;;;;;36.33;11.77;;;;;;;;;;6387444;27;20293;-58
2024/02/14 07:00:54;;;;;;;31.30;11.50;;;;;;;;;;6386784;27;20314;-55
2024/02/14 07:03:59;;;;;;;30.27;10.37;;;;;;;;;;6386260;27;20293;-57
2024/02/14 07:07:03;;;;;;;31.23;10.33;;;;;;;;;;6386643;27;20284;-57
2024/02/14 07:10:08;;;;;;;37.20;12.00;;;;;;;;;;6371008;27;20538;-57
2024/02/14 07:13:13;;;;;;;31.33;11.77;;;;;;;;;;6360412;28;20288;-57
2024/02/14 07:16:19;;;;;;;37.83;11.23;;;;;;;;;;6361092;28;20429;-56
2024/02/14 07:19:23;;;;;;;39.93;11.53;;;;;;;;;;6360164;28;20395;-55
2024/02/14 07:22:27;;;;;;;32.53;11.20;;;;;;;;;;6360751;28;20379;-56
2024/02/14 07:25:30;;;;;;;36.30;11.03;;;;;;;;;;6358969;27;20288;-56
2024/02/14 07:28:34;;;;;;;31.87;10.53;;;;;;;;;;6360432;27;20292;-55
2024/02/14 07:31:41;;;;;;;38.70;11.30;;;;;;;;;;6360796;28;20239;-54
2024/02/14 07:34:45;;;;;;;29.57;10.50;;;;;;;;;;6360106;28;20467;-56
2024/02/14 07:37:49;;;;;;;34.03;11.60;;;;;;;;;;6360104;28;20292;-56
2024/02/14 07:40:53;;;;;;;29.23;11.30;;;;;;;;;;6385496;27;20288;-57
2024/02/14 07:43:57;;;;;;;34.73;11.37;;;;;;;;;;6385384;27;20328;-57
2024/02/14 07:47:03;;;;;;;35.13;11.80;;;;;;;;;;6385656;27;20471;-56
2024/02/14 07:50:10;;;;;;;27.43;10.47;;;;;;;;;;6385027;27;20453;-57
2024/02/14 07:53:14;;;;;;;32.97;11.43;;;;;;;;;;6384829;27;20292;-57
2024/02/14 07:56:18;;;;;;;33.43;10.87;;;;;;;;;;6385200;27;20295;-54
2024/02/14 07:59:22;;;;;;;31.13;10.43;;;;;;;;;;6385062;27;20294;-57
2024/02/14 08:02:29;;;;;;;30.30;11.47;;;;;;;;;;6385335;27;20296;-57
2024/02/14 08:05:33;;;;;;;26.13;9.93;;;;;;;;;;6384811;27;20299;-57
2024/02/14 08:08:37;;;;;;;25.20;10.83;;;;;;;;;;6382969;27;20295;-57
2024/02/14 08:11:41;;;;;;;28.87;11.17;;;;;;;;;;6359417;28;20304;-56
2024/02/14 08:14:45;;;;;;;27.63;10.70;;;;;;;;;;6359143;28;20364;-55
2024/02/14 08:17:53;;;;;;;25.03;10.27;;;;;;;;;;6359527;28;20311;-57
2024/02/14 08:20:59;;;;;;;24.40;10.80;;;;;;;;;;6384799;27;20300;-57
2024/02/14 08:24:03;;;;;;;25.03;11.10;;;;;;;;;;6384758;27;20583;-55
2024/02/14 08:27:07;;;;;;;26.47;10.00;;;;;;;;;;6385249;27;20295;-56
2024/02/14 08:30:12;;;;;;;24.17;11.07;;;;;;;;;;6384323;27;20315;-57
2024/02/14 08:33:18;;;;;;;28.77;10.67;;;;;;;;;;6384388;27;20291;-56
2024/02/14 08:36:22;;;;;;;28.17;11.13;;;;;;;;;;6384803;27;20288;-57
2024/02/14 08:39:26;;;;;;;24.07;10.37;;;;;;;;;;6384219;27;20362;-57
2024/02/14 08:42:30;;;;;;;23.87;10.07;;;;;;;;;;6384873;27;20290;-57
2024/02/14 08:45:34;;;;;;;27.27;11.07;;;;;;;;;;6384602;27;20292;-56
2024/02/14 08:48:45;;;;;;;27.60;11.07;;;;;;;;;;6383902;27;20306;-56
2024/02/14 08:51:51;;;;;;;22.03;10.00;;;;;;;;;;6384782;28;20298;-57
2024/02/14 08:54:54;;;;;;;24.30;10.57;;;;;;;;;;6384117;28;20294;-57
2024/02/14 08:57:58;;;;;;;25.03;10.40;;;;;;;;;;6384849;28;20556;-56
2024/02/14 09:01:02;;;;;;;27.50;10.93;;;;;;;;;;6384039;28;20553;-57
2024/02/14 09:04:19;;;;;;;23.30;10.87;;;;;;;;;;6383796;28;20293;-54
2024/02/14 09:07:22;;;;;;;33.55;15.18;;;;;;;;;;6383138;28;20473;-57
2024/02/14 09:10:26;;;;;;;23.77;11.13;;;;;;;;;;6366742;28;20296;-56
2024/02/14 09:13:30;;;;;;;24.63;11.13;;;;;;;;;;6357562;28;20288;-56
2024/02/14 09:16:34;;;;;;;20.33;9.77;;;;;;;;;;6359053;28;20240;-57
2024/02/14 09:19:39;;;;;;;24.47;10.47;;;;;;;;;;6358190;28;20285;-54
2024/02/14 09:22:44;;;;;;;25.47;10.67;;;;;;;;;;6384015;28;20243;-54
2024/02/14 09:25:48;;;;;;;22.33;10.27;;;;;;;;;;6383972;28;20560;-56
2024/02/14 09:28:52;;;;;;;24.87;10.13;;;;;;;;;;6383561;27;20300;-55
2024/02/14 09:31:56;;;;;;;24.40;10.50;;;;;;;;;;6384161;27;20582;-56
2024/02/14 09:35:03;;;;;;;23.10;9.93;;;;;;;;;;6384041;28;20300;-54
2024/02/14 09:38:07;;;;;;;23.47;10.33;;;;;;;;;;6383809;27;20290;-54
2024/02/14 09:41:17;;;;;;;27.80;11.50;;;;;;;;;;6384198;28;20552;-55
2024/02/14 09:44:23;;;;;;;23.00;10.67;;;;;;;;;;6383828;28;20548;-54
2024/02/14 09:47:29;;;;;;;24.90;10.87;;;;;;;;;;6385153;27;20315;-55
2024/02/14 09:50:35;;;;;;;23.87;11.43;;;;;;;;;;6388453;27;20292;-54
2024/02/14 09:53:39;;;;;;;23.93;9.97;;;;;;;;;;6388022;27;20296;-52
2024/02/14 09:56:43;;;;;;;31.50;10.97;;;;;;;;;;6388887;27;20291;-56
2024/02/14 09:59:48;;;;;;;25.87;10.77;;;;;;;;;;6387709;27;20293;-55
2024/02/14 10:02:52;;;;;;;29.00;10.80;;;;;;;;;;6388576;27;20367;-56
2024/02/14 10:05:58;;;;;;;28.23;10.67;;;;;;;;;;6387797;27;20304;-56
2024/02/14 10:09:02;;;;;;;29.37;11.53;;;;;;;;;;6382191;27;20296;-56
2024/02/14 10:12:08;;;;;;;30.30;10.90;;;;;;;;;;6362442;28;20296;-57
2024/02/14 10:15:13;;;;;;;23.13;10.33;;;;;;;;;;6377465;27;20602;-55
2024/02/14 10:18:17;;;;;;;28.87;10.80;;;;;;;;;;6387736;27;20288;-57
2024/02/14 10:21:25;;;;;;;21.80;10.80;;;;;;;;;;6388658;27;20295;-58
2024/02/14 10:24:30;;;;;;;31.57;11.37;;;;;;;;;;6388054;27;20292;-56
2024/02/14 10:27:34;;;;;;;27.47;10.97;;;;;;;;;;6387866;27;20303;-55
2024/02/14 10:30:40;;;;;;;28.70;10.87;;;;;;;;;;6387273;27;20292;-56
2024/02/14 10:33:44;;;;;;;25.70;10.07;;;;;;;;;;6387574;27;20301;-55
2024/02/14 10:36:51;;;;;;;27.27;10.43;;;;;;;;;;6388256;27;20596;-55
2024/02/14 10:39:57;;;;;;;24.53;10.57;;;;;;;;;;6387385;27;20298;-56
2024/02/14 10:43:02;;;;;;;22.63;10.23;;;;;;;;;;6387988;27;20351;-57
2024/02/14 10:46:09;;;;;;;24.47;10.40;;;;;;;;;;6386917;27;20479;-57
2024/02/14 10:49:14;;;;;;;25.50;10.53;;;;;;;;;;6387051;27;20478;-57
2024/02/14 10:52:20;;;;;;;19.97;9.97;;;;;;;;;;6388026;27;20565;-56
2024/02/14 10:55:26;;;;;;;21.60;9.80;;;;;;;;;;6387054;27;20307;-57
2024/02/14 10:58:32;;;;;;;21.43;9.07;;;;;;;;;;6385652;27;20310;-58
2024/02/14 11:01:36;;;;;;;21.60;8.63;;;;;;;;;;6387193;27;20246;-56
2024/02/14 11:04:40;;;;;;;13.80;7.10;;;;;;;;;;6386538;27;20314;-56
2024/02/14 11:07:48;;;;;;;17.53;7.77;;;;;;;;;;6386937;27;20232;-58
2024/02/14 11:10:57;;;;;;;20.77;8.20;;;;;;;;;;6365546;27;20290;-56
2024/02/14 11:14:01;;;;;;;14.20;6.97;;;;;;;;;;6360994;28;20290;-58
2024/02/14 11:17:09;;;;;;;18.30;7.37;;;;;;;;;;6361788;28;20295;-56
2024/02/14 11:20:17;;;;;;;18.10;7.87;;;;;;;;;;6360694;28;20302;-55
2024/02/14 11:23:24;;;;;;;17.13;7.33;;;;;;;;;;6360709;28;20322;-54
2024/02/14 11:26:39;;;;;;;15.87;7.40;;;;;;;;;;6361531;28;20290;-56
2024/02/14 11:29:52;;;;;;;18.73;7.47;;;;;;;;;;6360430;28;20298;-56
2024/02/14 11:32:56;;;;;;;21.40;7.20;;;;;;;;;;6360866;28;20310;-55
2024/02/14 11:36:09;;;;;;;16.73;6.70;;;;;;;;;;6360548;28;20370;-56
2024/02/14 11:39:15;;;;;;;14.70;6.43;;;;;;;;;;6360309;28;20294;-56
2024/02/14 11:42:22;;;;;;;16.50;6.53;;;;;;;;;;6360799;28;20470;-56
2024/02/14 11:45:28;;;;;;;15.90;7.63;;;;;;;;;;6360310;28;20298;-56
2024/02/14 11:48:32;;;;;;;17.27;7.97;;;;;;;;;;6385597;27;20580;-57
2024/02/14 11:51:36;;;;;;;18.23;6.93;;;;;;;;;;6386736;27;20311;-58
2024/02/14 11:54:48;;;;;;;11.93;6.80;;;;;;;;;;6385308;27;20293;-56
2024/02/14 11:57:52;;;;;;;15.90;7.00;;;;;;;;;;6386043;27;20285;-56
2024/02/14 12:00:56;;;;;;;14.17;6.47;;;;;;;;;;6385686;27;20299;-56
2024/02/14 12:04:03;;;;;;;10.27;6.37;;;;;;;;;;6385310;27;20298;-55
2024/02/14 12:07:08;;;;;;;18.33;6.27;;;;;;;;;;6386211;27;20295;-57
2024/02/14 12:10:13;;;;;;;12.93;5.87;;;;;;;;;;6369789;27;20295;-57
2024/02/14 12:13:18;;;;;;;13.93;6.10;;;;;;;;;;6385330;27;20299;-55
2024/02/14 12:16:23;;;;;;;16.00;5.60;;;;;;;;;;6385582;27;20298;-55
2024/02/14 12:19:26;;;;;;;13.00;5.50;;;;;;;;;;6384970;27;20290;-56
2024/02/14 12:22:35;;;;;;;15.83;6.20;;;;;;;;;;6384452;27;20267;-55
2024/02/14 12:25:40;;;;;;;13.00;5.13;;;;;;;;;;6384418;27;20294;-55
2024/02/14 12:28:47;;;;;;;7.57;4.00;;;;;;;;;;6365846;27;20294;-55
2024/02/14 12:31:51;;;;;;;15.07;4.10;;;;;;;;;;6385160;27;20302;-58
2024/02/14 12:34:57;;;;;;;10.90;4.27;;;;;;;;;;6373940;27;20290;-57
2024/02/14 12:38:01;;;;;;;14.83;4.30;;;;;;;;;;6359621;28;20297;-55
2024/02/14 12:41:06;;;;;;;7.53;3.73;;;;;;;;;;6358934;28;20295;-57
2024/02/14 12:44:10;;;;;;;12.67;3.83;;;;;;;;;;6358570;28;20295;-56
2024/02/14 12:47:14;;;;;;;6.03;3.30;;;;;;;;;;6359368;28;20295;-57
2024/02/14 12:50:20;;;;;;;10.43;3.40;;;;;;;;;;6358577;28;20572;-56
2024/02/14 12:53:24;;;;;;;10.17;3.43;;;;;;;;;;6358759;28;20300;-60
2024/02/14 12:56:29;;;;;;;6.70;2.63;;;;;;;;;;6358723;28;20296;-57
2024/02/14 12:59:33;;;;;;;8.83;3.33;;;;;;;;;;6358726;28;20607;-56
2024/02/14 13:02:38;;;;;;;8.63;3.57;;;;;;;;;;6359227;28;20296;-56
2024/02/14 13:05:42;;;;;;;9.17;3.10;;;;;;;;;;6358627;28;20292;-53
2024/02/14 13:08:46;;;;;;;6.20;3.13;;;;;;;;;;6358493;28;20295;-57
2024/02/14 13:11:52;;;;;;;7.13;3.83;;;;;;;;;;6358895;28;20303;-56
2024/02/14 13:14:56;;;;;;;7.83;2.80;;;;;;;;;;6358797;28;20299;-57
2024/02/14 13:18:00;;;;;;;8.93;2.83;;;;;;;;;;6359157;28;20290;-56
2024/02/14 13:21:05;;;;;;;7.23;3.30;;;;;;;;;;6358460;28;20295;-56
2024/02/14 13:24:12;;;;;;;8.80;3.00;;;;;;;;;;6362476;28;20295;-56
2024/02/14 13:27:21;;;;;;;7.70;3.00;;;;;;;;;;6363990;28;20290;-57
2024/02/14 13:30:25;;;;;;;11.40;2.90;;;;;;;;;;6363458;28;20296;-56
2024/02/14 13:33:28;;;;;;;8.27;3.30;;;;;;;;;;6363610;28;20291;-56
2024/02/14 13:36:32;;;;;;;5.43;2.90;;;;;;;;;;6364119;28;20289;-56
2024/02/14 13:39:36;;;;;;;5.37;3.13;;;;;;;;;;6363077;28;20434;-56
2024/02/14 13:42:42;;;;;;;5.23;2.97;;;;;;;;;;6363547;28;20299;-56
2024/02/14 13:45:48;;;;;;;5.97;3.33;;;;;;;;;;6363344;28;20291;-59
2024/02/14 13:48:52;;;;;;;10.67;3.70;;;;;;;;;;6363003;28;20290;-56
2024/02/14 13:51:57;;;;;;;8.03;3.70;;;;;;;;;;6363516;28;20403;-56
2024/02/14 13:55:02;;;;;;;11.07;3.83;;;;;;;;;;6363042;28;20303;-57
2024/02/14 13:58:14;;;;;;;7.30;3.60;;;;;;;;;;6362760;28;20291;-59
2024/02/14 14:01:18;;;;;;;16.97;4.27;;;;;;;;;;6362994;28;20566;-57
2024/02/14 14:04:22;;;;;;;9.70;4.03;;;;;;;;;;6362620;28;20292;-57
2024/02/14 14:07:26;;;;;;;12.73;4.10;;;;;;;;;;6362857;28;20295;-57
2024/02/14 14:10:30;;;;;;;6.33;3.70;;;;;;;;;;6361273;28;20363;-57
2024/02/14 14:13:36;;;;;;;3.57;2.90;;;;;;;;;;6362048;28;20456;-56
2024/02/14 14:16:39;;;;;;;6.33;3.37;;;;;;;;;;6362972;28;20270;-56
2024/02/14 14:19:43;;;;;;;12.03;3.20;;;;;;;;;;6361985;28;20295;-57
2024/02/14 14:22:47;;;;;;;8.73;3.27;;;;;;;;;;6362543;28;20298;-55
2024/02/14 14:25:51;;;;;;;8.47;2.93;;;;;;;;;;6362087;28;20294;-56
2024/02/14 14:28:56;;;;;;;7.23;2.90;;;;;;;;;;6361726;28;20458;-55
2024/02/14 14:32:00;;;;;;;9.10;3.30;;;;;;;;;;6362178;28;20293;-56
2024/02/14 14:35:06;;;;;;;9.33;3.13;;;;;;;;;;6361593;28;20285;-56
2024/02/14 14:38:10;;;;;;;9.43;3.70;;;;;;;;;;6361547;28;20291;-57
2024/02/14 14:41:14;;;;;;;11.07;3.03;;;;;;;;;;6362147;28;20298;-57
2024/02/14 14:44:20;;;;;;;10.60;3.10;;;;;;;;;;6361567;28;20598;-58
2024/02/14 14:47:24;;;;;;;8.77;3.20;;;;;;;;;;6362134;28;20299;-57
2024/02/14 14:50:28;;;;;;;4.47;2.90;;;;;;;;;;6361542;28;20294;-57
2024/02/14 14:53:31;;;;;;;7.17;3.10;;;;;;;;;;6361436;28;20293;-57
2024/02/14 14:56:36;;;;;;;6.90;2.87;;;;;;;;;;6362152;28;20290;-57
2024/02/14 14:59:43;;;;;;;5.90;3.03;;;;;;;;;;6361526;28;20302;-55
2024/02/14 15:02:47;;;;;;;5.63;2.80;;;;;;;;;;6361576;28;20298;-58
2024/02/14 15:05:51;;;;;;;4.00;2.60;;;;;;;;;;6361140;28;20306;-57
2024/02/14 15:08:55;;;;;;;8.97;2.70;;;;;;;;;;6361094;28;20285;-55
2024/02/14 15:11:59;;;;;;;8.00;2.80;;;;;;;;;;6360997;28;20302;-58
2024/02/14 15:15:05;;;;;;;9.33;2.53;;;;;;;;;;6360737;28;20337;-56
2024/02/14 15:18:09;;;;;;;6.97;2.73;;;;;;;;;;6360662;28;20300;-56
2024/02/14 15:21:13;;;;;;;10.37;2.90;;;;;;;;;;6361100;28;20297;-58
2024/02/14 15:24:17;;;;;;;6.30;2.80;;;;;;;;;;6360475;28;20294;-56
2024/02/14 15:27:23;;;;;;;7.43;3.00;;;;;;;;;;6361024;28;20298;-57
2024/02/14 15:33:50;;;;;;;4.63;2.70;;;;;;;;;;6360202;28;20295;-58
2024/02/14 15:36:54;;;;;;;9.23;3.00;;;;;;;;;;6360896;28;20294;-57
2024/02/14 15:39:58;;;;;;;7.07;3.10;;;;;;;;;;6360095;28;20454;-57
2024/02/14 15:43:03;;;;;;;6.00;2.90;;;;;;;;;;6361066;28;20298;-56
2024/02/14 15:46:09;;;;;;;5.83;3.13;;;;;;;;;;6359611;28;20605;-55
2024/02/14 15:49:12;;;;;;;6.47;3.10;;;;;;;;;;6360365;28;20289;-56
2024/02/14 15:52:17;;;;;;;8.70;3.40;;;;;;;;;;6360620;28;20293;-56
2024/02/14 15:55:21;;;;;;;5.43;3.10;;;;;;;;;;6359554;28;20304;-58
2024/02/14 15:58:26;;;;;;;10.50;3.47;;;;;;;;;;6360014;28;20357;-55
2024/02/14 16:01:31;;;;;;;3.67;2.90;;;;;;;;;;6359361;28;20269;-55
2024/02/14 16:04:35;;;;;;;6.60;3.33;;;;;;;;;;6359729;28;20284;-53
2024/02/14 16:07:39;;;;;;;13.23;3.23;;;;;;;;;;6359630;28;20384;-56
2024/02/14 16:10:44;;;;;;;9.57;3.27;;;;;;;;;;6359483;28;20298;-56
2024/02/14 16:13:48;;;;;;;6.43;3.63;;;;;;;;;;6359323;28;20564;-55
2024/02/14 16:16:53;;;;;;;7.40;3.87;;;;;;;;;;6359914;28;20516;-57
2024/02/14 16:19:57;;;;;;;8.37;3.43;;;;;;;;;;6359677;28;20388;-57
2024/02/14 16:23:01;;;;;;;5.13;3.80;;;;;;;;;;6360081;28;20292;-56
2024/02/14 16:26:05;;;;;;;7.20;3.43;;;;;;;;;;6359448;28;20580;-55
2024/02/14 16:29:09;;;;;;;4.90;3.40;;;;;;;;;;6358930;28;20296;-56
2024/02/14 16:32:15;;;;;;;10.63;3.13;;;;;;;;;;6359440;28;20293;-56
2024/02/14 16:35:20;;;;;;;3.10;2.73;;;;;;;;;;6359252;28;20289;-56
2024/02/14 16:38:24;;;;;;;6.10;3.40;;;;;;;;;;6359340;28;20286;-57
2024/02/14 16:41:28;;;;;;;7.73;3.47;;;;;;;;;;6359800;28;20310;-56
2024/02/14 16:44:33;;;;;;;5.40;3.37;;;;;;;;;;6358751;28;20299;-57
2024/02/14 16:47:38;;;;;;;12.27;3.90;;;;;;;;;;6359437;28;20293;-58
2024/02/14 16:50:43;;;;;;;10.97;3.73;;;;;;;;;;6339900;28;20287;-58
2024/02/14 16:53:51;;;;;;;6.57;3.47;;;;;;;;;;6356130;28;20283;-58
2024/02/14 16:57:04;;;;;;;9.53;3.60;;;;;;;;;;6379625;27;20330;-58
2024/02/14 17:00:10;;;;;;;11.33;3.97;;;;;;;;;;6388447;27;20302;-56
2024/02/14 17:03:15;;;;;;;10.50;4.17;;;;;;;;;;6388084;27;20291;-53
2024/02/14 17:06:20;;;;;;;9.60;3.80;;;;;;;;;;6388370;27;20586;-55
2024/02/14 17:09:25;;;;;;;10.50;4.00;;;;;;;;;;6379722;27;20299;-58
2024/02/14 17:12:30;;;;;;;7.03;4.30;;;;;;;;;;6388337;27;20293;-56
2024/02/14 17:15:34;;;;;;;7.80;3.67;;;;;;;;;;6388126;27;20301;-56
2024/02/14 17:18:40;;;;;;;11.87;4.10;;;;;;;;;;6387766;27;20545;-58
2024/02/14 17:21:44;;;;;;;8.70;4.47;;;;;;;;;;6387771;27;20603;-58
2024/02/14 17:24:48;;;;;;;9.20;4.50;;;;;;;;;;6387283;27;20297;-56
2024/02/14 17:27:53;;;;;;;12.47;4.40;;;;;;;;;;6388215;27;20287;-59
2024/02/14 17:30:56;;;;;;;16.07;4.40;;;;;;;;;;6387292;27;20423;-56
2024/02/14 17:34:02;;;;;;;12.23;4.83;;;;;;;;;;6387049;27;20312;-56
2024/02/14 17:37:06;;;;;;;12.27;5.03;;;;;;;;;;6387578;27;20284;-57
2024/02/14 17:40:11;;;;;;;14.63;4.60;;;;;;;;;;6386822;27;20295;-56
2024/02/14 17:43:15;;;;;;;14.57;4.87;;;;;;;;;;6386898;27;20604;-56
2024/02/14 17:46:19;;;;;;;15.57;5.23;;;;;;;;;;6387065;27;20293;-55
2024/02/14 17:49:24;;;;;;;15.10;5.30;;;;;;;;;;6386761;27;20485;-56
2024/02/14 17:52:29;;;;;;;13.33;5.13;;;;;;;;;;6386687;27;20521;-58
2024/02/14 17:55:33;;;;;;;18.97;5.67;;;;;;;;;;6386056;27;20353;-57
2024/02/14 17:58:37;;;;;;;16.40;6.17;;;;;;;;;;6386700;27;20301;-57
2024/02/14 18:01:41;;;;;;;16.77;6.50;;;;;;;;;;6387186;27;20556;-56
2024/02/14 18:04:46;;;;;;;20.83;6.17;;;;;;;;;;6386466;27;20300;-56
2024/02/14 18:07:50;;;;;;;16.80;6.03;;;;;;;;;;6386303;27;20565;-55
2024/02/14 18:10:54;;;;;;;20.90;6.70;;;;;;;;;;6369242;27;20299;-54
2024/02/14 18:13:58;;;;;;;25.50;6.40;;;;;;;;;;6386458;27;20298;-55
2024/02/14 18:17:02;;;;;;;18.63;6.70;;;;;;;;;;6386660;27;20377;-56
2024/02/14 18:20:08;;;;;;;23.50;7.27;;;;;;;;;;6385834;27;20294;-56